createdAt,value
2019-02-06T00:01:46.992Z,72.90
2019-02-06T00:04:15.502Z,78.72
2019-02-06T00:06:42.722Z,77.70
2019-02-06T00:09:13.213Z,77.53
2019-02-06T00:11:40.671Z,81.08
2019-02-06T00:14:08.052Z,74.50
2019-02-06T00:16:35.429Z,81.82
2019-02-06T00:19:02.463Z,74.37
2019-02-06T00:21:29.887Z,80.03
2019-02-06T00:23:57.484Z,71.72
2019-02-06T00:26:24.549Z,80.25
2019-02-06T00:28:52.051Z,85.35
2019-02-06T00:31:20.454Z,67.10
2019-02-06T00:33:48.089Z,85.60
2019-02-06T00:36:16.060Z,71.75
2019-02-06T00:38:43.421Z,77.42
2019-02-06T00:41:12.936Z,76.45
2019-02-06T00:43:40.275Z,78.75
2019-02-06T00:46:07.629Z,70.97
2019-02-06T00:48:34.981Z,64.12
2019-02-06T00:51:03.076Z,78.00
2019-02-06T00:53:30.719Z,76.75
2019-02-06T00:55:58.068Z,84.10
2019-02-06T00:58:26.138Z,68.67
2019-02-06T01:00:53.495Z,64.97
2019-02-06T01:03:21.060Z,72.27
2019-02-06T01:05:48.119Z,75.60
2019-02-06T01:08:15.457Z,72.27
2019-02-06T01:10:43.227Z,72.47
2019-02-06T01:13:10.570Z,77.08
2019-02-06T01:15:37.930Z,73.40
2019-02-06T01:18:05.592Z,72.40
2019-02-06T01:20:33.046Z,64.00
2019-02-06T01:23:00.089Z,73.87
2019-02-06T01:25:27.447Z,67.47
2019-02-06T01:27:54.801Z,69.50
2019-02-06T01:30:24.515Z,80.22
2019-02-06T01:32:51.585Z,76.07
2019-02-06T01:35:18.914Z,66.17
2019-02-06T01:37:46.378Z,69.75
2019-02-06T01:40:15.283Z,74.37
2019-02-06T01:42:42.768Z,81.08
2019-02-06T01:45:11.422Z,81.95
2019-02-06T01:47:38.481Z,70.22
2019-02-06T01:50:08.869Z,80.25
2019-02-06T01:52:36.536Z,77.05
2019-02-06T01:55:04.633Z,71.20
2019-02-06T01:57:31.685Z,69.82
2019-02-06T01:59:58.970Z,72.08
2019-02-06T02:02:26.093Z,71.00
2019-02-06T02:04:53.777Z,68.15
2019-02-06T02:07:20.840Z,64.67
2019-02-06T02:09:49.014Z,72.15
2019-02-06T02:12:16.071Z,70.08
2019-02-06T02:14:45.322Z,75.90
2019-02-06T02:17:12.592Z,64.40
2019-02-06T02:19:39.734Z,76.80
2019-02-06T02:22:06.789Z,71.67
2019-02-06T02:24:33.880Z,68.97
2019-02-06T02:27:01.107Z,83.85
2019-02-06T02:29:28.160Z,74.30
2019-02-06T02:31:55.376Z,71.40
2019-02-06T02:34:23.309Z,76.25
2019-02-06T02:36:50.462Z,68.97
2019-02-06T02:39:19.828Z,81.15
2019-02-06T02:41:46.878Z,70.28
2019-02-06T02:44:14.304Z,85.67
2019-02-06T02:46:41.345Z,69.27
2019-02-06T02:49:08.657Z,63.60
2019-02-06T02:51:35.700Z,76.47
2019-02-06T02:54:03.949Z,77.10
2019-02-06T02:56:30.988Z,69.65
2019-02-06T02:58:58.226Z,69.62
2019-02-06T03:01:34.161Z,73.57
2019-02-06T03:04:21.662Z,72.42
2019-02-06T03:06:48.827Z,72.03
2019-02-06T03:09:15.905Z,80.57
2019-02-06T03:11:43.024Z,70.32
2019-02-06T03:14:10.450Z,78.15
2019-02-06T03:16:37.481Z,80.92
2019-02-06T03:19:04.709Z,79.20
2019-02-06T03:21:31.749Z,64.80
2019-02-06T03:23:59.086Z,72.95
2019-02-06T03:26:26.208Z,70.17
2019-02-06T03:28:53.233Z,74.00
2019-02-06T03:31:20.627Z,71.17
2019-02-06T03:33:48.862Z,64.97
2019-02-06T03:36:15.887Z,82.12
2019-02-06T03:38:44.776Z,67.08
2019-02-06T03:41:11.804Z,69.25
2019-02-06T03:43:38.890Z,65.70
2019-02-06T03:46:06.297Z,69.03
2019-02-06T03:48:33.331Z,75.45
2019-02-06T03:51:00.652Z,70.62
2019-02-06T03:53:27.693Z,69.55
2019-02-06T03:55:54.709Z,77.00
2019-02-06T03:58:21.761Z,79.95
2019-02-06T04:00:48.784Z,78.07
2019-02-06T04:03:15.817Z,66.30
2019-02-06T04:05:43.582Z,72.80
2019-02-06T04:08:11.622Z,65.47
2019-02-06T04:10:39.523Z,71.22
2019-02-06T04:13:06.875Z,64.80
2019-02-06T04:15:35.146Z,75.35
2019-02-06T04:18:02.507Z,70.57
2019-02-06T04:20:29.546Z,70.57
2019-02-06T04:22:57.213Z,78.37
2019-02-06T04:25:24.565Z,68.60
2019-02-06T04:27:51.996Z,76.95
2019-02-06T04:30:19.705Z,70.28
2019-02-06T04:32:47.040Z,74.50
2019-02-06T04:35:14.605Z,67.97
2019-02-06T04:37:41.648Z,73.85
2019-02-06T04:40:14.817Z,74.12
2019-02-06T04:42:41.877Z,65.42
2019-02-06T04:45:10.263Z,72.30
2019-02-06T04:47:37.467Z,81.22
2019-02-06T04:50:06.554Z,65.47
2019-02-06T04:52:34.269Z,73.30
2019-02-06T04:55:01.475Z,87.92
2019-02-06T04:57:28.690Z,85.77
2019-02-06T04:59:56.851Z,68.40
2019-02-06T05:02:24.550Z,72.60
2019-02-06T05:04:51.588Z,67.87
2019-02-06T05:07:19.750Z,74.70
2019-02-06T05:09:47.029Z,79.03
2019-02-06T05:12:14.237Z,70.45
2019-02-06T05:14:41.315Z,76.77
2019-02-06T05:17:08.393Z,71.45
2019-02-06T05:19:35.782Z,78.05
2019-02-06T05:22:03.551Z,73.52
2019-02-06T05:24:31.319Z,80.12
2019-02-06T05:26:58.725Z,73.92
2019-02-06T05:29:26.332Z,77.67
2019-02-06T05:31:53.652Z,79.67
2019-02-06T05:34:21.346Z,74.07
2019-02-06T05:36:50.968Z,83.58
2019-02-06T05:39:17.676Z,79.75
2019-02-06T05:41:45.053Z,86.53
2019-02-06T05:44:12.403Z,83.62
2019-02-06T05:46:40.784Z,91.37
2019-02-06T05:49:08.175Z,81.78
2019-02-06T05:51:36.624Z,88.17
2019-02-06T05:54:04.587Z,79.65
2019-02-06T05:56:32.103Z,107.52
2019-02-06T05:58:59.499Z,94.10
2019-02-06T06:01:27.569Z,87.55
2019-02-06T06:03:54.924Z,92.70
2019-02-06T06:06:22.285Z,92.95
2019-02-06T06:08:49.939Z,96.02
2019-02-06T06:11:17.306Z,88.40
2019-02-06T06:13:44.671Z,90.75
2019-02-06T06:16:13.235Z,87.88
2019-02-06T06:18:40.896Z,101.85
2019-02-06T06:21:09.820Z,86.53
2019-02-06T06:23:37.164Z,89.80
2019-02-06T06:26:04.609Z,106.78
2019-02-06T06:28:31.640Z,101.47
2019-02-06T06:30:59.140Z,102.80
2019-02-06T06:33:26.196Z,90.92
2019-02-06T06:35:53.777Z,88.42
2019-02-06T06:38:20.850Z,85.92
2019-02-06T06:40:48.825Z,83.37
2019-02-06T06:43:16.542Z,99.35
2019-02-06T06:45:44.356Z,91.47
2019-02-06T06:48:12.320Z,103.30
2019-02-06T06:50:39.675Z,103.02
2019-02-06T06:53:07.025Z,100.20
2019-02-06T06:55:35.391Z,92.82
2019-02-06T06:58:02.454Z,104.95
2019-02-06T07:00:30.941Z,97.20
2019-02-06T07:03:00.019Z,99.97
2019-02-06T07:05:27.284Z,89.15
2019-02-06T07:07:54.785Z,94.03
2019-02-06T07:10:22.259Z,90.60
2019-02-06T07:12:49.312Z,95.20
2019-02-06T07:15:21.420Z,93.50
2019-02-06T07:17:48.583Z,96.50
2019-02-06T07:20:17.277Z,88.82
2019-02-06T07:22:44.662Z,93.12
2019-02-06T07:25:13.670Z,91.05
2019-02-06T07:27:41.055Z,82.25
2019-02-06T07:30:13.307Z,76.75
2019-02-06T07:32:40.376Z,76.85
2019-02-06T07:35:07.448Z,80.15
2019-02-06T07:37:36.002Z,85.72
2019-02-06T07:40:04.262Z,78.90
2019-02-06T07:42:31.652Z,77.27
2019-02-06T07:45:00.174Z,71.15
2019-02-06T07:47:28.169Z,73.55
2019-02-06T07:49:55.166Z,67.45
2019-02-06T07:52:22.185Z,69.62
2019-02-06T07:54:49.185Z,72.78
2019-02-06T07:57:17.369Z,71.53
2019-02-06T07:59:44.373Z,68.65
2019-02-06T08:02:11.581Z,62.23
2019-02-06T08:04:41.454Z,70.25
2019-02-06T08:07:07.528Z,70.62
2019-02-06T08:09:34.525Z,68.30
2019-02-06T08:12:01.645Z,72.12
2019-02-06T08:14:32.997Z,63.60
2019-02-06T08:17:00.002Z,65.90
2019-02-06T08:19:27.197Z,60.88
2019-02-06T08:21:54.299Z,66.05
2019-02-06T08:24:21.661Z,67.00
2019-02-06T08:26:48.654Z,58.78
2019-02-06T08:29:15.803Z,66.22
2019-02-06T08:31:44.227Z,59.50
2019-02-06T08:34:12.350Z,64.10
2019-02-06T08:36:40.463Z,59.60
2019-02-06T08:39:07.933Z,63.87
2019-02-06T08:41:35.120Z,63.40
2019-02-06T08:44:02.401Z,68.37
2019-02-06T08:46:29.871Z,67.03
2019-02-06T08:48:57.678Z,59.10
2019-02-06T08:51:25.335Z,60.85
2019-02-06T08:53:53.126Z,51.60
2019-02-06T08:56:22.245Z,57.13
2019-02-06T08:58:50.068Z,53.30
2019-02-06T09:01:17.121Z,57.98
2019-02-06T09:03:44.180Z,52.75
2019-02-06T09:06:11.524Z,50.83
2019-02-06T09:08:39.588Z,55.70
2019-02-06T09:11:06.895Z,53.50
2019-02-06T09:13:34.750Z,55.80
2019-02-06T09:16:04.002Z,55.75
2019-02-06T09:18:32.152Z,48.35
2019-02-06T09:20:59.842Z,54.00
2019-02-06T09:23:26.904Z,46.30
2019-02-06T09:25:56.976Z,48.35
2019-02-06T09:28:23.217Z,52.98
2019-02-06T09:30:50.403Z,51.23
2019-02-06T09:33:17.857Z,46.33
2019-02-06T09:35:44.961Z,44.67
2019-02-06T09:38:12.018Z,47.05
2019-02-06T09:40:39.442Z,46.50
2019-02-06T09:43:07.364Z,50.80
2019-02-06T09:45:34.438Z,43.87
2019-02-06T09:48:01.895Z,51.70
2019-02-06T09:50:31.614Z,49.13
2019-02-06T09:52:58.986Z,58.35
2019-02-06T09:55:26.507Z,47.10
2019-02-06T09:57:53.566Z,52.55
2019-02-06T10:00:23.550Z,46.75
2019-02-06T10:02:51.210Z,41.58
2019-02-06T10:05:19.884Z,47.40
2019-02-06T10:07:47.256Z,56.10
2019-02-06T10:10:16.681Z,45.33
2019-02-06T10:12:45.238Z,48.42
2019-02-06T10:15:21.811Z,45.35
2019-02-06T10:17:49.510Z,39.23
2019-02-06T10:20:17.740Z,42.88
2019-02-06T10:22:45.510Z,41.42
2019-02-06T10:25:14.203Z,44.53
2019-02-06T10:27:43.393Z,38.00
2019-02-06T10:30:18.905Z,42.62
2019-02-06T10:32:45.953Z,35.75
2019-02-06T10:35:13.350Z,36.88
2019-02-06T10:37:40.696Z,39.05
2019-02-06T10:40:08.257Z,32.23
2019-02-06T10:42:35.715Z,30.95
2019-02-06T10:45:03.992Z,32.25
2019-02-06T10:47:31.348Z,35.40
2019-02-06T10:49:58.807Z,29.30
2019-02-06T10:52:26.961Z,36.65
2019-02-06T10:54:56.074Z,29.42
2019-02-06T10:57:23.136Z,28.12
2019-02-06T10:59:50.471Z,27.20
2019-02-06T11:02:17.827Z,27.40
2019-02-06T11:04:45.032Z,28.50
2019-02-06T11:07:12.088Z,32.83
2019-02-06T11:09:46.119Z,25.08
2019-02-06T11:12:11.125Z,33.98
2019-02-06T11:14:38.641Z,31.25
2019-02-06T11:17:05.734Z,32.20
2019-02-06T11:19:32.797Z,27.10
2019-02-06T11:21:59.975Z,31.20
2019-02-06T11:24:28.226Z,33.48
2019-02-06T11:26:56.483Z,33.28
2019-02-06T11:29:25.270Z,32.48
2019-02-06T11:31:53.761Z,31.85
2019-02-06T11:34:21.139Z,31.33
2019-02-06T11:36:48.226Z,32.20
2019-02-06T11:39:23.095Z,32.48
2019-02-06T11:41:50.783Z,31.68
2019-02-06T11:44:18.936Z,31.40
2019-02-06T11:46:46.288Z,32.88
2019-02-06T11:49:14.459Z,35.70
2019-02-06T11:51:41.812Z,41.58
2019-02-06T11:54:09.474Z,30.50
2019-02-06T11:56:36.562Z,38.10
2019-02-06T11:59:03.699Z,37.38
2019-02-06T12:01:35.208Z,34.98
2019-02-06T12:04:02.263Z,37.13
2019-02-06T12:06:29.371Z,34.50
2019-02-06T12:08:57.723Z,28.35
2019-02-06T12:11:24.797Z,31.25
2019-02-06T12:13:53.046Z,33.92
2019-02-06T12:16:20.242Z,32.63
2019-02-06T12:18:49.790Z,33.60
2019-02-06T12:21:18.137Z,38.00
2019-02-06T12:23:45.298Z,33.60
2019-02-06T12:26:12.686Z,34.40
2019-02-06T12:28:41.959Z,39.85
2019-02-06T12:31:09.518Z,28.65
2019-02-06T12:33:38.716Z,33.23
2019-02-06T12:36:06.377Z,36.23
2019-02-06T12:38:33.739Z,36.40
2019-02-06T12:41:01.088Z,30.50
2019-02-06T12:43:29.353Z,32.35
2019-02-06T12:45:57.133Z,31.55
2019-02-06T12:48:24.794Z,32.17
2019-02-06T12:50:51.856Z,30.32
2019-02-06T12:53:20.019Z,32.13
2019-02-06T12:55:47.104Z,32.30
2019-02-06T12:58:15.309Z,28.67
2019-02-06T13:00:42.524Z,29.82
2019-02-06T13:03:09.943Z,28.23
2019-02-06T13:05:37.295Z,25.72
2019-02-06T13:08:06.493Z,27.60
2019-02-06T13:10:34.625Z,26.50
2019-02-06T13:13:03.555Z,29.55
2019-02-06T13:15:31.384Z,29.27
2019-02-06T13:17:58.513Z,27.35
2019-02-06T13:20:27.354Z,31.27
2019-02-06T13:22:55.539Z,31.45
2019-02-06T13:25:23.718Z,24.80
2019-02-06T13:27:50.765Z,28.92
2019-02-06T13:30:20.884Z,32.03
2019-02-06T13:32:48.359Z,32.42
2019-02-06T13:35:17.785Z,34.00
2019-02-06T13:37:44.835Z,32.88
2019-02-06T13:40:14.376Z,36.03
2019-02-06T13:42:41.718Z,32.88
2019-02-06T13:45:11.739Z,27.00
2019-02-06T13:47:38.811Z,30.02
2019-02-06T13:50:08.082Z,27.52
2019-02-06T13:52:35.574Z,29.48
2019-02-06T13:55:02.667Z,35.28
2019-02-06T13:57:33.861Z,33.23
2019-02-06T13:59:59.472Z,31.00
2019-02-06T14:02:26.535Z,29.05
2019-02-06T14:04:53.866Z,34.40
2019-02-06T14:07:21.736Z,33.53
2019-02-06T14:09:49.222Z,32.17
2019-02-06T14:12:17.395Z,30.37
2019-02-06T14:14:45.134Z,28.38
2019-02-06T14:17:12.901Z,28.57
2019-02-06T14:19:39.943Z,25.32
2019-02-06T14:22:09.848Z,30.55
2019-02-06T14:25:02.632Z,25.72
2019-02-06T14:28:04.650Z,28.83
2019-02-06T14:30:58.934Z,27.02
2019-02-06T14:33:38.450Z,24.82
2019-02-06T14:36:47.246Z,28.42
2019-02-06T14:39:25.003Z,25.70
2019-02-06T14:42:18.097Z,27.67
2019-02-06T14:45:11.121Z,26.97
2019-02-06T14:48:17.872Z,25.68
2019-02-06T14:51:36.071Z,30.23
2019-02-06T14:54:31.116Z,25.88
2019-02-06T14:57:36.025Z,23.52
2019-02-06T15:00:27.523Z,21.73
2019-02-06T15:03:43.415Z,20.35
2019-02-06T15:06:39.182Z,24.32
2019-02-06T15:09:45.741Z,27.48
2019-02-06T15:12:57.450Z,24.43
2019-02-06T15:15:50.335Z,27.80
2019-02-06T15:18:37.827Z,23.27
2019-02-06T15:21:36.489Z,29.18
2019-02-06T15:25:01.841Z,29.37
2019-02-06T15:28:42.909Z,27.13
2019-02-06T15:31:53.357Z,25.55
2019-02-06T15:35:10.266Z,25.48
2019-02-06T15:38:15.595Z,27.77
2019-02-06T15:40:54.293Z,25.33
2019-02-06T15:44:00.286Z,25.70
2019-02-06T15:46:42.170Z,26.40
2019-02-06T15:49:30.661Z,29.70
2019-02-06T15:52:38.602Z,27.55
2019-02-06T15:55:50.883Z,25.20
2019-02-06T15:58:47.186Z,25.88
2019-02-06T16:01:39.058Z,27.10
2019-02-06T16:05:40.703Z,27.80
2019-02-06T16:09:01.573Z,27.58
2019-02-06T16:11:51.019Z,26.30
2019-02-06T16:14:53.619Z,30.30
2019-02-06T16:17:49.951Z,27.48
2019-02-06T16:20:53.877Z,27.15
2019-02-06T16:23:56.842Z,24.95
2019-02-06T16:27:02.407Z,31.10
2019-02-06T16:30:03.007Z,35.88
2019-02-06T16:32:59.159Z,30.37
2019-02-06T16:35:54.147Z,32.05
2019-02-06T16:38:39.801Z,34.90
2019-02-06T16:41:56.681Z,29.87
2019-02-06T16:44:58.207Z,33.78
2019-02-06T16:48:00.096Z,30.68
2019-02-06T16:50:52.427Z,33.20
2019-02-06T16:54:08.469Z,31.52
2019-02-06T16:57:27.083Z,34.63
2019-02-06T17:00:31.301Z,33.67
2019-02-06T17:03:40.854Z,33.53
2019-02-06T17:06:39.625Z,40.45
2019-02-06T17:09:55.231Z,38.48
2019-02-06T17:12:54.319Z,34.70
2019-02-06T17:16:07.747Z,36.80
2019-02-06T17:19:13.196Z,33.63
2019-02-06T17:21:57.230Z,33.80
2019-02-06T17:24:48.123Z,38.10
2019-02-06T17:27:40.756Z,36.27
2019-02-06T17:30:53.146Z,38.60
2019-02-06T17:33:51.989Z,36.10
2019-02-06T17:36:50.487Z,37.67
2019-02-06T17:39:57.194Z,35.48
2019-02-06T17:43:09.873Z,40.60
2019-02-06T17:46:15.428Z,37.80
2019-02-06T17:49:22.006Z,36.07
2019-02-06T17:52:17.137Z,35.20
2019-02-06T17:55:20.512Z,46.23
2019-02-06T17:57:49.504Z,38.80
2019-02-06T18:00:28.248Z,39.97
2019-02-06T18:02:55.368Z,43.97
2019-02-06T18:05:22.443Z,50.50
2019-02-06T18:07:49.487Z,47.97
2019-02-06T18:10:17.030Z,43.60
2019-02-06T18:12:44.064Z,48.73
2019-02-06T18:15:11.101Z,45.57
2019-02-06T18:17:38.307Z,52.50
2019-02-06T18:20:07.627Z,48.73
2019-02-06T18:22:34.658Z,52.33
2019-02-06T18:25:02.270Z,43.47
2019-02-06T18:27:30.451Z,49.60
2019-02-06T18:29:58.184Z,51.80
2019-02-06T18:32:25.271Z,50.30
2019-02-06T18:34:52.748Z,54.37
2019-02-06T18:37:20.927Z,54.03
2019-02-06T18:39:48.137Z,60.13
2019-02-06T18:42:17.341Z,57.40
2019-02-06T18:44:46.137Z,49.67
2019-02-06T18:47:13.232Z,51.50
2019-02-06T18:49:40.322Z,51.60
2019-02-06T18:52:07.707Z,52.70
2019-02-06T18:54:35.916Z,51.37
2019-02-06T18:57:02.964Z,51.10
2019-02-06T18:59:30.096Z,61.37
2019-02-06T19:01:57.245Z,48.67
2019-02-06T19:04:24.490Z,50.40
2019-02-06T19:06:52.433Z,48.60
2019-02-06T19:09:20.105Z,50.57
2019-02-06T19:11:47.164Z,56.33
2019-02-06T19:14:15.207Z,56.73
2019-02-06T19:16:42.293Z,52.97
2019-02-06T19:19:09.354Z,59.60
2019-02-06T19:21:36.414Z,51.13
2019-02-06T19:24:04.411Z,66.07
2019-02-06T19:26:32.168Z,57.53
2019-02-06T19:28:59.594Z,57.20
2019-02-06T19:31:28.479Z,55.30
2019-02-06T19:33:55.539Z,59.43
2019-02-06T19:36:23.320Z,65.63
2019-02-06T19:38:50.763Z,60.93
2019-02-06T19:41:17.820Z,61.20
2019-02-06T19:43:44.897Z,63.63
2019-02-06T19:46:12.299Z,64.40
2019-02-06T19:48:39.345Z,73.28
2019-02-06T19:51:06.749Z,65.90
2019-02-06T19:53:33.967Z,59.03
2019-02-06T19:56:01.035Z,62.80
2019-02-06T19:58:28.508Z,61.97
2019-02-06T20:00:55.742Z,54.17
2019-02-06T20:03:22.762Z,59.73
2019-02-06T20:05:49.801Z,63.77
2019-02-06T20:08:16.961Z,58.70
2019-02-06T20:10:45.543Z,59.13
2019-02-06T20:13:14.619Z,58.47
2019-02-06T20:15:41.885Z,76.00
2019-02-06T20:18:09.365Z,58.20
2019-02-06T20:20:36.431Z,59.87
2019-02-06T20:23:19.451Z,56.10
2019-02-06T20:25:46.609Z,61.10
2019-02-06T20:28:13.646Z,59.03
2019-02-06T20:30:40.869Z,54.00
2019-02-06T20:33:09.206Z,65.50
2019-02-06T20:35:37.118Z,60.47
2019-02-06T20:38:04.317Z,61.73
2019-02-06T20:40:33.074Z,54.93
2019-02-06T20:43:01.127Z,61.63
2019-02-06T20:45:29.240Z,54.93
2019-02-06T20:47:57.828Z,54.40
2019-02-06T20:50:29.258Z,53.17
2019-02-06T20:52:57.072Z,48.53
2019-02-06T20:55:24.542Z,58.90
2019-02-06T20:57:51.717Z,56.30
2019-02-06T21:00:24.153Z,54.77
2019-02-06T21:02:51.281Z,51.60
2019-02-06T21:05:18.820Z,49.10
2019-02-06T21:07:46.426Z,56.30
2019-02-06T21:10:16.106Z,51.83
2019-02-06T21:12:43.221Z,61.63
2019-02-06T21:15:10.541Z,65.00
2019-02-06T21:17:37.608Z,57.40
2019-02-06T21:20:07.164Z,61.60
2019-02-06T21:22:34.594Z,56.90
2019-02-06T21:25:04.372Z,56.20
2019-02-06T21:27:33.148Z,50.83
2019-02-06T21:30:00.395Z,58.60
2019-02-06T21:32:27.715Z,50.47
2019-02-06T21:34:55.343Z,56.50
2019-02-06T21:37:23.638Z,50.83
2019-02-06T21:39:50.716Z,48.90
2019-02-06T21:42:18.206Z,47.03
2019-02-06T21:44:45.497Z,51.77
2019-02-06T21:47:13.067Z,59.10
2019-02-06T21:49:40.532Z,51.57
2019-02-06T21:52:09.615Z,51.57
2019-02-06T21:54:37.559Z,46.57
2019-02-06T21:57:05.439Z,46.87
2019-02-06T21:59:32.698Z,43.73
2019-02-06T22:02:01.485Z,42.80
2019-02-06T22:04:28.770Z,46.73
2019-02-06T22:06:56.199Z,41.30
2019-02-06T22:09:23.572Z,40.30
2019-02-06T22:11:50.988Z,38.73
2019-02-06T22:14:18.457Z,36.17
2019-02-06T22:16:45.588Z,43.20
2019-02-06T22:19:13.389Z,42.00
2019-02-06T22:21:40.593Z,37.97
2019-02-06T22:24:07.689Z,34.03
2019-02-06T22:26:34.791Z,38.93
2019-02-06T22:29:01.881Z,47.60
2019-02-06T22:31:29.356Z,37.90
2019-02-06T22:33:57.309Z,41.27
2019-02-06T22:36:26.695Z,39.47
2019-02-06T22:38:54.154Z,36.07
2019-02-06T22:41:21.559Z,35.30
2019-02-06T22:43:49.078Z,37.93
2019-02-06T22:46:16.261Z,40.87
2019-02-06T22:48:43.356Z,42.37
2019-02-06T22:51:10.430Z,36.43
2019-02-06T22:53:38.066Z,39.07
2019-02-06T22:56:05.401Z,37.73
2019-02-06T22:58:32.517Z,36.07
2019-02-06T23:01:21.928Z,36.47
2019-02-06T23:03:49.632Z,33.43
2019-02-06T23:06:16.760Z,39.63
2019-02-06T23:08:44.142Z,45.40
2019-02-06T23:11:11.221Z,38.90
2019-02-06T23:13:40.194Z,40.50
2019-02-06T23:16:07.716Z,36.73
2019-02-06T23:18:35.803Z,38.77
2019-02-06T23:21:02.845Z,44.70
2019-02-06T23:23:31.021Z,42.83
2019-02-06T23:25:58.357Z,40.03
2019-02-06T23:28:25.406Z,40.37
2019-02-06T23:30:52.512Z,36.30
2019-02-06T23:33:19.542Z,34.97
2019-02-06T23:35:48.186Z,30.73
2019-02-06T23:38:15.628Z,37.93
2019-02-06T23:40:43.110Z,40.07
2019-02-06T23:43:10.276Z,39.33
2019-02-06T23:45:37.372Z,42.17
2019-02-06T23:48:05.484Z,40.17
2019-02-06T23:50:33.136Z,35.60
2019-02-06T23:53:01.614Z,40.00
2019-02-06T23:55:28.782Z,41.33
2019-02-06T23:57:56.423Z,37.33
